createdAt,value
2022-08-28T00:00:21.207Z,99945.97
2022-08-28T00:03:23.043Z,99947.37
2022-08-28T00:06:25.113Z,99952.63
2022-08-28T00:09:26.766Z,99946.75
2022-08-28T00:12:28.641Z,99933.50
2022-08-28T00:15:33.232Z,99946.09
2022-08-28T00:18:35.048Z,99944.88
2022-08-28T00:21:37.545Z,99938.69
2022-08-28T00:24:39.342Z,99941.06
2022-08-28T00:27:52.985Z,99936.56
2022-08-28T00:30:58.463Z,99929.41
2022-08-28T00:34:03.096Z,99932.00
2022-08-28T00:37:05.041Z,99929.88
2022-08-28T00:40:09.083Z,99929.69
2022-08-28T00:43:22.802Z,99921.59
2022-08-28T00:46:24.469Z,99919.81
2022-08-28T00:49:37.609Z,99930.03
2022-08-28T00:52:40.395Z,99919.66
2022-08-28T00:55:43.217Z,99920.44
2022-08-28T00:58:47.968Z,99920.62
2022-08-28T01:01:54.301Z,99918.69
2022-08-28T01:04:56.291Z,99918.13
2022-08-28T01:07:59.386Z,99921.09
2022-08-28T01:11:03.686Z,99924.13
2022-08-28T01:14:06.566Z,99930.28
2022-08-28T01:17:09.995Z,99924.44
2022-08-28T01:20:16.328Z,99918.75
2022-08-28T01:23:47.137Z,99917.34
2022-08-28T01:26:48.852Z,99926.31
2022-08-28T01:29:51.266Z,99926.13
2022-08-28T01:32:55.986Z,99925.22
2022-08-28T01:35:59.296Z,99921.47
2022-08-28T01:39:16.459Z,99923.50
2022-08-28T01:42:18.102Z,99961.38
2022-08-28T01:45:21.161Z,99968.31
2022-08-28T01:48:25.747Z,99970.13
2022-08-28T01:51:27.798Z,99978.63
2022-08-28T01:54:37.126Z,99979.25
2022-08-28T01:57:49.745Z,99980.78
2022-08-28T02:00:53.158Z,100000.19
2022-08-28T02:03:55.338Z,99994.78
2022-08-28T02:06:57.128Z,99976.06
2022-08-28T02:09:59.114Z,99982.28
2022-08-28T02:13:01.516Z,99995.41
2022-08-28T02:16:04.882Z,99989.94
2022-08-28T02:19:06.568Z,99973.75
2022-08-28T02:22:09.462Z,99972.88
2022-08-28T02:25:14.175Z,99986.22
2022-08-28T02:28:15.876Z,99974.53
2022-08-28T02:31:17.640Z,99969.97
2022-08-28T02:34:19.558Z,99959.31
2022-08-28T02:37:23.557Z,99957.53
2022-08-28T02:40:26.078Z,99964.56
2022-08-28T02:43:27.766Z,99961.03
2022-08-28T02:46:30.266Z,99962.87
2022-08-28T02:49:36.473Z,99957.63
2022-08-28T02:52:40.384Z,99954.06
2022-08-28T02:55:42.377Z,99955.91
2022-08-28T02:58:44.574Z,99956.84
2022-08-28T03:01:46.375Z,99956.84
2022-08-28T03:04:48.510Z,99951.56
2022-08-28T03:07:53.265Z,99947.16
2022-08-28T03:10:55.948Z,99948.97
2022-08-28T03:13:57.721Z,99952.59
2022-08-28T03:17:01.561Z,99954.41
2022-08-28T03:20:06.110Z,99954.44
2022-08-28T03:23:26.803Z,99957.09
2022-08-28T03:26:28.726Z,99956.28
2022-08-28T03:29:31.691Z,99954.53
2022-08-28T03:32:34.022Z,99969.50
2022-08-28T03:35:37.385Z,99961.53
2022-08-28T03:38:39.529Z,99966.00
2022-08-28T03:41:41.428Z,99960.63
2022-08-28T03:44:43.115Z,99961.66
2022-08-28T03:47:45.021Z,99968.94
2022-08-28T03:50:47.863Z,99983.09
2022-08-28T03:53:51.178Z,99987.78
2022-08-28T03:56:53.106Z,99980.00
2022-08-28T03:59:54.810Z,99972.06
2022-08-28T04:02:56.718Z,99970.25
2022-08-28T04:05:58.773Z,99977.22
2022-08-28T04:09:00.699Z,99980.66
2022-08-28T04:12:02.968Z,99981.50
2022-08-28T04:15:06.960Z,99985.84
2022-08-28T04:18:10.357Z,99987.56
2022-08-28T04:21:16.578Z,99985.81
2022-08-28T04:24:18.617Z,99989.34
2022-08-28T04:27:20.717Z,99991.06
2022-08-28T04:30:22.344Z,99996.28
2022-08-28T04:33:26.208Z,100012.22
2022-08-28T04:36:28.513Z,100015.78
2022-08-28T04:39:30.131Z,100002.56
2022-08-28T04:42:32.085Z,100007.13
2022-08-28T04:45:34.392Z,100010.59
2022-08-28T04:48:36.560Z,100004.53
2022-08-28T04:51:42.133Z,100004.50
2022-08-28T04:54:44.122Z,100003.59
2022-08-28T04:57:45.739Z,100001.75
2022-08-28T05:00:49.824Z,100003.44
2022-08-28T05:03:55.778Z,100013.97
2022-08-28T05:06:57.893Z,100012.06
2022-08-28T05:09:59.651Z,100013.81
2022-08-28T05:13:01.717Z,100020.75
2022-08-28T05:16:04.735Z,100025.84
2022-08-28T05:19:06.527Z,100028.41
2022-08-28T05:22:10.246Z,100021.25
2022-08-28T05:25:12.607Z,100029.94
2022-08-28T05:28:17.051Z,100036.78
2022-08-28T05:31:21.929Z,100030.47
2022-08-28T05:34:24.032Z,100035.41
2022-08-28T05:37:25.984Z,100033.44
2022-08-28T05:40:27.902Z,100034.94
2022-08-28T05:43:31.477Z,100030.00
2022-08-28T05:46:34.719Z,100030.37
2022-08-28T05:49:36.785Z,100042.78
2022-08-28T05:52:39.569Z,100047.16
2022-08-28T05:55:41.467Z,100046.94
2022-08-28T05:58:43.195Z,100049.00
2022-08-28T06:01:47.754Z,100049.47
2022-08-28T06:04:50.496Z,100049.75
2022-08-28T06:07:52.761Z,100055.56
2022-08-28T06:10:54.887Z,100059.91
2022-08-28T06:14:02.592Z,100068.16
2022-08-28T06:17:05.202Z,100062.56
2022-08-28T06:20:07.860Z,100062.09
2022-08-28T06:23:11.653Z,100065.94
2022-08-28T06:26:13.574Z,100071.06
2022-08-28T06:29:18.525Z,100071.97
2022-08-28T06:32:22.870Z,100066.88
2022-08-28T06:35:27.853Z,100067.66
2022-08-28T06:38:29.995Z,100070.00
2022-08-28T06:41:33.502Z,100074.31
2022-08-28T06:44:35.234Z,100067.91
2022-08-28T06:47:37.308Z,100086.03
2022-08-28T06:50:45.236Z,100074.59
2022-08-28T06:53:47.343Z,100078.09
2022-08-28T06:56:49.359Z,100088.53
2022-08-28T06:59:51.197Z,100083.25
2022-08-28T07:02:52.937Z,100087.84
2022-08-28T07:05:59.390Z,100083.81
2022-08-28T07:09:01.525Z,100082.91
2022-08-28T07:12:03.786Z,100085.56
2022-08-28T07:15:09.502Z,100083.19
2022-08-28T07:18:11.347Z,100078.44
2022-08-28T07:21:16.411Z,100074.78
2022-08-28T07:24:18.592Z,100073.84
2022-08-28T07:27:22.305Z,100067.59
2022-08-28T07:30:24.253Z,100070.31
2022-08-28T07:33:27.936Z,100067.69
2022-08-28T07:36:30.153Z,100067.06
2022-08-28T07:39:32.183Z,100070.87
2022-08-28T07:42:52.678Z,100065.47
2022-08-28T07:46:02.506Z,100063.38
2022-08-28T07:49:06.526Z,100062.00
2022-08-28T07:52:09.870Z,100060.28
2022-08-28T07:55:11.490Z,100069.16
2022-08-28T07:58:13.811Z,100055.03
2022-08-28T08:01:17.749Z,100060.87
2022-08-28T08:04:22.509Z,100062.56
2022-08-28T08:07:24.372Z,100054.41
2022-08-28T08:10:26.214Z,100066.56
2022-08-28T08:13:37.130Z,100056.22
2022-08-28T08:16:42.437Z,100057.84
2022-08-28T08:19:44.091Z,100053.41
2022-08-28T08:22:45.693Z,100053.41
2022-08-28T08:25:58.955Z,100059.12
2022-08-28T08:29:01.337Z,100060.16
2022-08-28T08:32:07.023Z,100061.44
2022-08-28T08:35:09.169Z,100066.09
2022-08-28T08:38:11.766Z,100062.47
2022-08-28T08:41:34.905Z,100058.84
2022-08-28T08:44:43.663Z,100060.81
2022-08-28T08:47:51.397Z,100058.47
2022-08-28T08:50:53.973Z,100063.69
2022-08-28T08:54:10.129Z,100076.12
2022-08-28T08:57:14.751Z,100074.16
2022-08-28T09:00:18.850Z,100079.81
2022-08-28T09:03:25.832Z,100077.75
2022-08-28T09:06:50.080Z,100082.59
2022-08-28T09:09:54.888Z,100071.72
2022-08-28T09:13:05.549Z,100073.03
2022-08-28T09:16:24.750Z,100075.06
2022-08-28T09:19:27.243Z,100079.44
2022-08-28T09:22:28.880Z,100073.00
2022-08-28T09:26:09.257Z,100074.19
2022-08-28T09:29:18.269Z,100076.09
2022-08-28T09:32:31.087Z,100076.41
2022-08-28T09:35:37.417Z,100078.75
2022-08-28T09:38:39.495Z,100085.50
2022-08-28T09:42:18.103Z,100088.66
2022-08-28T09:45:23.178Z,100085.28
2022-08-28T09:48:45.912Z,100084.50
2022-08-28T09:51:47.897Z,100087.47
2022-08-28T09:54:50.741Z,100087.16
2022-08-28T09:57:54.802Z,100086.25
2022-08-28T10:01:10.159Z,100084.13
2022-08-28T10:04:33.794Z,100079.97
2022-08-28T10:07:41.920Z,100082.81
2022-08-28T10:10:53.559Z,100073.19
2022-08-28T10:14:06.858Z,100080.53
2022-08-28T10:17:14.302Z,100085.06
2022-08-28T10:20:21.850Z,100088.03
2022-08-28T10:23:27.441Z,100083.06
2022-08-28T10:26:38.166Z,100086.47
2022-08-28T10:30:12.492Z,100083.56
2022-08-28T10:33:30.106Z,100081.91
2022-08-28T10:36:35.152Z,100079.28
2022-08-28T10:39:57.974Z,100074.06
2022-08-28T10:43:03.272Z,100068.72
2022-08-28T10:46:12.684Z,100061.97
2022-08-28T10:49:26.742Z,100071.13
2022-08-28T10:52:36.354Z,100066.91
2022-08-28T10:55:48.963Z,100068.88
2022-08-28T10:58:57.365Z,100058.56
2022-08-28T11:02:00.771Z,100053.22
2022-08-28T11:05:05.245Z,100058.97
2022-08-28T11:08:12.677Z,100056.28
2022-08-28T11:11:15.054Z,100058.69
2022-08-28T11:14:48.900Z,100064.41
2022-08-28T11:17:52.365Z,100059.34
2022-08-28T11:21:03.259Z,100057.44
2022-08-28T11:24:21.011Z,100058.69
2022-08-28T11:27:31.336Z,100049.31
2022-08-28T11:30:36.509Z,100049.53
2022-08-28T11:33:38.160Z,100050.37
2022-08-28T11:36:43.665Z,100050.28
2022-08-28T11:39:45.434Z,100044.75
2022-08-28T11:42:50.644Z,100042.72
2022-08-28T11:45:55.267Z,100040.59
2022-08-28T11:48:59.864Z,100038.78
2022-08-28T11:52:10.169Z,100032.81
2022-08-28T11:55:17.697Z,100024.81
2022-08-28T11:58:47.921Z,100032.81
2022-08-28T12:01:51.481Z,100040.25
2022-08-28T12:04:53.521Z,100029.44
2022-08-28T12:07:55.191Z,100020.94
2022-08-28T12:10:58.960Z,100019.97
2022-08-28T12:14:00.644Z,100035.34
2022-08-28T12:17:02.587Z,100026.66
2022-08-28T12:20:10.029Z,100020.03
2022-08-28T12:23:23.886Z,100025.94
2022-08-28T12:26:45.131Z,100019.16
2022-08-28T12:29:50.666Z,100009.00
2022-08-28T12:33:36.337Z,100014.28
2022-08-28T12:36:38.194Z,100014.34
2022-08-28T12:39:42.575Z,100002.03
2022-08-28T12:42:55.861Z,100001.94
2022-08-28T12:46:02.346Z,99994.78
2022-08-28T12:49:25.247Z,99995.81
2022-08-28T12:52:27.261Z,99987.47
2022-08-28T12:55:29.588Z,99990.88
2022-08-28T12:58:36.593Z,99985.53
2022-08-28T13:01:39.178Z,99982.69
2022-08-28T13:05:05.028Z,99986.50
2022-08-28T13:08:12.887Z,99972.09
2022-08-28T13:11:19.759Z,99979.00
2022-08-28T13:14:43.318Z,99973.50
2022-08-28T13:17:51.666Z,99971.97
2022-08-28T13:21:10.584Z,99974.16
2022-08-28T13:24:21.985Z,99972.38
2022-08-28T13:27:24.872Z,99957.88
2022-08-28T13:30:33.673Z,99957.13
2022-08-28T13:33:35.969Z,99952.06
2022-08-28T13:36:42.858Z,99947.78
2022-08-28T13:39:44.813Z,99952.00
2022-08-28T13:42:47.886Z,99939.91
2022-08-28T13:45:51.303Z,99940.47
2022-08-28T13:48:52.996Z,99949.00
2022-08-28T13:51:57.398Z,99936.84
2022-08-28T13:54:59.221Z,99936.94
2022-08-28T13:58:01.420Z,99936.06
2022-08-28T14:01:04.680Z,99942.75
2022-08-28T14:04:06.360Z,99948.97
2022-08-28T14:07:08.811Z,99947.03
2022-08-28T14:10:10.662Z,99942.28
2022-08-28T14:13:12.764Z,99937.09
2022-08-28T14:16:16.912Z,99939.44
2022-08-28T14:19:19.738Z,99932.37
2022-08-28T14:22:21.818Z,99930.06
2022-08-28T14:25:24.094Z,99931.25
2022-08-28T14:28:25.792Z,99918.84
2022-08-28T14:31:28.993Z,99925.31
2022-08-28T14:34:31.668Z,99928.22
2022-08-28T14:37:33.405Z,99923.69
2022-08-28T14:40:38.468Z,99918.78
2022-08-28T14:43:40.855Z,99919.84
2022-08-28T14:46:44.702Z,99920.91
2022-08-28T14:49:46.588Z,99917.19
2022-08-28T14:52:50.661Z,99909.63
2022-08-28T14:55:52.767Z,99909.13
2022-08-28T14:58:55.099Z,99908.47
2022-08-28T15:02:00.085Z,99910.28
2022-08-28T15:05:01.985Z,99914.47
2022-08-28T15:08:09.387Z,99913.88
2022-08-28T15:11:18.445Z,99902.78
2022-08-28T15:14:20.903Z,99905.69
2022-08-28T15:17:23.628Z,99915.34
2022-08-28T15:20:45.123Z,99916.13
2022-08-28T15:23:50.494Z,99921.00
2022-08-28T15:26:52.773Z,99934.78
2022-08-28T15:29:54.507Z,99936.38
2022-08-28T15:32:56.566Z,99944.72
2022-08-28T15:35:58.492Z,99954.87
2022-08-28T15:39:19.024Z,99953.38
2022-08-28T15:42:21.003Z,99952.31
2022-08-28T15:45:22.909Z,99948.97
2022-08-28T15:48:24.978Z,99955.16
2022-08-28T15:51:26.759Z,99954.59
2022-08-28T15:54:30.064Z,99952.44
2022-08-28T15:57:32.471Z,99961.72
2022-08-28T16:00:34.704Z,99958.81
2022-08-28T16:03:37.027Z,99966.22
2022-08-28T16:06:38.616Z,99963.34
2022-08-28T16:09:40.731Z,99971.78
2022-08-28T16:12:42.625Z,99966.28
2022-08-28T16:15:48.050Z,99966.47
2022-08-28T16:18:49.856Z,99979.13
2022-08-28T16:21:51.954Z,100005.22
2022-08-28T16:24:54.052Z,100006.53
2022-08-28T16:27:57.469Z,99997.06
2022-08-28T16:31:02.849Z,100005.81
2022-08-28T16:34:10.826Z,99992.75
2022-08-28T16:37:19.460Z,100000.00
2022-08-28T16:40:23.523Z,99988.19
2022-08-28T16:43:25.603Z,99982.88
2022-08-28T16:46:28.195Z,99990.56
2022-08-28T16:49:30.215Z,100003.75
2022-08-28T16:52:31.923Z,99998.72
2022-08-28T16:55:34.857Z,100006.34
2022-08-28T16:58:41.335Z,100020.09
2022-08-28T17:01:43.082Z,100029.28
2022-08-28T17:04:45.163Z,100043.59
2022-08-28T17:07:48.222Z,100049.81
2022-08-28T17:10:50.394Z,100057.53
2022-08-28T17:13:52.143Z,100055.47
2022-08-28T17:16:54.164Z,100056.75
2022-08-28T17:19:55.850Z,100054.56
2022-08-28T17:22:57.693Z,100075.25
2022-08-28T17:25:59.555Z,100075.44
2022-08-28T17:29:01.467Z,100086.31
2022-08-28T17:32:05.341Z,100074.25
2022-08-28T17:35:07.577Z,100081.72
2022-08-28T17:38:09.507Z,100068.56
2022-08-28T17:41:12.082Z,100070.13
2022-08-28T17:44:14.416Z,100076.97
2022-08-28T17:47:16.520Z,100078.34
2022-08-28T17:50:18.820Z,100085.31
2022-08-28T17:53:24.638Z,100079.97
2022-08-28T17:56:35.959Z,100089.91
2022-08-28T17:59:38.366Z,100094.25
2022-08-28T18:02:40.398Z,100094.03
2022-08-28T18:05:42.728Z,100098.84
2022-08-28T18:08:46.599Z,100093.03
2022-08-28T18:11:49.084Z,100104.28
2022-08-28T18:14:51.335Z,100104.28
2022-08-28T18:17:53.507Z,100107.66
2022-08-28T18:20:56.047Z,100108.09
2022-08-28T18:23:58.398Z,100111.81
2022-08-28T18:27:00.656Z,100113.66
2022-08-28T18:30:03.654Z,100117.34
2022-08-28T18:33:05.812Z,100123.88
2022-08-28T18:36:09.673Z,100119.81
2022-08-28T18:39:13.078Z,100128.75
2022-08-28T18:42:16.374Z,100131.47
2022-08-28T18:45:19.115Z,100130.12
2022-08-28T18:48:22.163Z,100135.47
2022-08-28T18:51:24.637Z,100136.50
2022-08-28T18:54:27.948Z,100132.63
2022-08-28T18:57:30.450Z,100134.66
2022-08-28T19:00:34.198Z,100134.19
2022-08-28T19:03:37.177Z,100136.91
2022-08-28T19:06:41.309Z,100142.25
2022-08-28T19:09:43.590Z,100138.63
2022-08-28T19:12:45.973Z,100140.22
2022-08-28T19:15:53.055Z,100138.44
2022-08-28T19:18:56.247Z,100136.44
2022-08-28T19:22:00.926Z,100131.94
2022-08-28T19:25:13.257Z,100138.09
2022-08-28T19:28:30.517Z,100133.50
2022-08-28T19:31:32.814Z,100136.88
2022-08-28T19:34:35.521Z,100140.34
2022-08-28T19:37:42.175Z,100149.22
2022-08-28T19:40:45.610Z,100145.56
2022-08-28T19:43:48.102Z,100144.66
2022-08-28T19:46:50.378Z,100155.13
2022-08-28T19:49:54.608Z,100163.81
2022-08-28T19:52:59.710Z,100161.03
2022-08-28T19:56:02.096Z,100156.53
2022-08-28T19:59:07.244Z,100155.53
2022-08-28T20:02:09.690Z,100161.47
2022-08-28T20:05:12.665Z,100159.63
2022-08-28T20:08:16.724Z,100159.56
2022-08-28T20:11:30.235Z,100168.41
2022-08-28T20:14:34.603Z,100172.72
2022-08-28T20:17:43.700Z,100176.97
2022-08-28T20:20:48.994Z,100177.78
2022-08-28T20:23:51.104Z,100187.59
2022-08-28T20:26:53.290Z,100186.75
2022-08-28T20:29:55.020Z,100187.62
2022-08-28T20:32:58.129Z,100183.19
2022-08-28T20:36:06.229Z,100177.91
2022-08-28T20:39:12.812Z,100182.34
2022-08-28T20:42:14.644Z,100178.84
2022-08-28T20:45:18.615Z,100185.06
2022-08-28T20:48:20.272Z,100184.16
2022-08-28T20:51:41.855Z,100183.28
2022-08-28T20:54:44.843Z,100187.72
2022-08-28T20:57:46.518Z,100192.38
2022-08-28T21:00:48.397Z,100191.47
2022-08-28T21:03:55.057Z,100186.25
2022-08-28T21:06:57.633Z,100187.28
2022-08-28T21:10:05.610Z,100183.75
2022-08-28T21:13:10.196Z,100190.91
2022-08-28T21:16:11.855Z,100192.81
2022-08-28T21:19:16.404Z,100191.84
2022-08-28T21:22:18.544Z,100192.81
2022-08-28T21:25:26.464Z,100204.03
2022-08-28T21:28:28.769Z,100205.19
2022-08-28T21:31:30.421Z,100210.59
2022-08-28T21:34:32.387Z,100212.03
2022-08-28T21:37:35.141Z,100210.78
2022-08-28T21:40:36.836Z,100211.19
2022-08-28T21:43:46.737Z,100216.03
2022-08-28T21:46:48.367Z,100209.91
2022-08-28T21:49:54.911Z,100202.47
2022-08-28T21:52:57.061Z,100204.50
2022-08-28T21:55:58.724Z,100207.25
2022-08-28T21:59:01.710Z,100202.78
2022-08-28T22:02:04.250Z,100196.81
2022-08-28T22:05:06.389Z,100203.16
2022-08-28T22:08:08.080Z,100207.09
2022-08-28T22:11:10.865Z,100213.47
2022-08-28T22:14:14.016Z,100208.94
2022-08-28T22:17:16.247Z,100205.75
2022-08-28T22:20:18.015Z,100215.25
2022-08-28T22:23:19.948Z,100215.06
2022-08-28T22:26:22.205Z,100216.06
2022-08-28T22:29:23.875Z,100216.56
2022-08-28T22:32:26.964Z,100230.13
2022-08-28T22:35:29.146Z,100241.88
2022-08-28T22:38:31.030Z,100241.19
2022-08-28T22:41:33.060Z,100236.41
2022-08-28T22:44:35.459Z,100227.63
2022-08-28T22:47:37.473Z,100238.91
2022-08-28T22:50:39.109Z,100231.84
2022-08-28T22:53:43.936Z,100227.97
2022-08-28T22:56:45.676Z,100227.31
2022-08-28T22:59:47.649Z,100227.22
2022-08-28T23:02:50.421Z,100225.00
2022-08-28T23:05:52.527Z,100223.84
2022-08-28T23:08:54.126Z,100224.75
2022-08-28T23:11:59.990Z,100225.78
2022-08-28T23:15:04.628Z,100222.16
2022-08-28T23:18:06.699Z,100232.25
2022-08-28T23:21:09.779Z,100234.91
2022-08-28T23:24:16.130Z,100230.44
2022-08-28T23:30:44.094Z,100216.28
2022-08-28T23:33:50.359Z,100216.63
2022-08-28T23:36:53.640Z,100208.28
2022-08-28T23:39:55.413Z,100213.34
2022-08-28T23:42:58.178Z,100221.16
2022-08-28T23:46:00.953Z,100221.16
2022-08-28T23:49:03.053Z,100221.56
2022-08-28T23:52:04.704Z,100224.31
2022-08-28T23:55:08.047Z,100231.34
2022-08-28T23:58:10.123Z,100222.28
